createdAt,value
2022-10-02T00:00:39.095Z,15.55
2022-10-02T00:03:28.568Z,15.48
2022-10-02T00:06:15.113Z,15.32
2022-10-02T00:08:43.358Z,15.42
2022-10-02T00:11:23.144Z,15.48
2022-10-02T00:13:57.835Z,15.52
2022-10-02T00:16:35.440Z,15.62
2022-10-02T00:19:04.014Z,15.66
2022-10-02T00:21:48.394Z,15.46
2022-10-02T00:24:22.487Z,15.45
2022-10-02T00:27:29.089Z,15.53
2022-10-02T00:30:02.170Z,15.39
2022-10-02T00:32:45.230Z,15.48
2022-10-02T00:35:33.889Z,15.48
2022-10-02T00:38:25.983Z,15.73
2022-10-02T00:41:14.737Z,15.55
2022-10-02T00:44:03.331Z,15.65
2022-10-02T00:46:43.822Z,15.52
2022-10-02T00:49:20.295Z,15.32
2022-10-02T00:52:23.290Z,15.41
2022-10-02T00:55:36.384Z,15.65
2022-10-02T00:58:28.986Z,15.69
2022-10-02T01:01:22.769Z,15.61
2022-10-02T01:03:56.575Z,15.59
2022-10-02T01:06:28.249Z,15.65
2022-10-02T01:08:56.506Z,15.73
2022-10-02T01:11:27.076Z,15.79
2022-10-02T01:13:54.946Z,15.55
2022-10-02T01:16:22.631Z,15.59
2022-10-02T01:18:51.204Z,15.78
2022-10-02T01:21:41.563Z,15.61
2022-10-02T01:24:39.561Z,15.62
2022-10-02T01:27:07.242Z,15.53
2022-10-02T01:29:35.193Z,15.63
2022-10-02T01:32:02.791Z,15.62
2022-10-02T01:34:31.437Z,15.79
2022-10-02T01:36:59.592Z,15.62
2022-10-02T01:39:28.184Z,15.82
2022-10-02T01:41:56.216Z,15.70
2022-10-02T01:44:26.581Z,15.79
2022-10-02T01:47:22.462Z,15.73
2022-10-02T01:49:55.754Z,15.58
2022-10-02T01:52:37.341Z,15.46
2022-10-02T01:55:38.522Z,15.66
2022-10-02T01:58:17.185Z,15.70
2022-10-02T02:01:13.895Z,15.66
2022-10-02T02:03:59.618Z,15.67
2022-10-02T02:06:37.673Z,15.74
2022-10-02T02:09:19.363Z,15.81
2022-10-02T02:11:58.555Z,15.74
2022-10-02T02:14:36.201Z,15.63
2022-10-02T02:17:15.174Z,15.81
2022-10-02T02:20:02.736Z,15.69
2022-10-02T02:22:51.906Z,15.65
2022-10-02T02:25:29.258Z,15.61
2022-10-02T02:28:02.309Z,15.66
2022-10-02T02:30:32.788Z,15.73
2022-10-02T02:33:26.657Z,15.67
2022-10-02T02:36:03.572Z,15.52
2022-10-02T02:38:42.153Z,15.36
2022-10-02T02:41:33.931Z,15.48
2022-10-02T02:44:36.297Z,15.23
2022-10-02T02:47:26.358Z,15.24
2022-10-02T02:49:59.119Z,15.34
2022-10-02T02:52:57.909Z,15.30
2022-10-02T02:55:45.298Z,15.18
2022-10-02T02:58:18.819Z,15.23
2022-10-02T03:00:46.629Z,15.27
2022-10-02T03:03:14.239Z,15.15
2022-10-02T03:05:49.340Z,15.21
2022-10-02T03:08:28.275Z,15.32
2022-10-02T03:11:10.802Z,15.08
2022-10-02T03:14:01.612Z,15.31
2022-10-02T03:16:38.202Z,15.10
2022-10-02T03:19:37.268Z,15.03
2022-10-02T03:22:19.307Z,15.05
2022-10-02T03:25:31.891Z,15.07
2022-10-02T03:28:37.415Z,14.96
2022-10-02T03:31:07.378Z,15.05
2022-10-02T03:33:39.139Z,15.12
2022-10-02T03:36:07.267Z,15.00
2022-10-02T03:38:36.252Z,14.90
2022-10-02T03:41:03.822Z,15.00
2022-10-02T03:43:31.883Z,15.04
2022-10-02T03:45:59.421Z,14.96
2022-10-02T03:48:27.184Z,14.97
2022-10-02T03:50:54.896Z,14.93
2022-10-02T03:53:36.868Z,15.00
2022-10-02T03:56:13.612Z,15.04
2022-10-02T03:58:47.041Z,14.91
2022-10-02T04:01:54.272Z,14.83
2022-10-02T04:04:31.527Z,14.70
2022-10-02T04:07:04.965Z,14.76
2022-10-02T04:09:43.244Z,14.69
2022-10-02T04:12:26.855Z,14.72
2022-10-02T04:15:08.901Z,14.81
2022-10-02T04:17:58.208Z,14.93
2022-10-02T04:20:56.058Z,14.77
2022-10-02T04:23:52.683Z,14.80
2022-10-02T04:26:33.522Z,14.88
2022-10-02T04:29:24.791Z,14.90
2022-10-02T04:32:01.544Z,14.90
2022-10-02T04:34:29.360Z,15.04
2022-10-02T04:37:36.185Z,15.12
2022-10-02T04:40:07.446Z,15.21
2022-10-02T04:42:40.388Z,14.90
2022-10-02T04:45:37.811Z,15.00
2022-10-02T04:48:33.361Z,15.04
2022-10-02T04:51:20.020Z,14.97
2022-10-02T04:54:17.117Z,15.01
2022-10-02T04:56:54.167Z,14.81
2022-10-02T04:59:30.727Z,14.87
2022-10-02T05:02:27.216Z,14.91
2022-10-02T05:05:32.092Z,14.80
2022-10-02T05:08:16.752Z,14.73
2022-10-02T05:11:11.221Z,14.76
2022-10-02T05:13:47.945Z,14.87
2022-10-02T05:16:26.953Z,14.80
2022-10-02T05:19:36.850Z,14.80
2022-10-02T05:22:31.201Z,14.88
2022-10-02T05:25:01.654Z,14.70
2022-10-02T05:27:39.021Z,14.57
2022-10-02T05:30:18.711Z,14.53
2022-10-02T05:33:16.710Z,14.57
2022-10-02T05:35:47.676Z,14.59
2022-10-02T05:38:24.799Z,14.62
2022-10-02T05:41:08.948Z,14.46
2022-10-02T05:43:52.623Z,14.38
2022-10-02T05:46:37.465Z,14.47
2022-10-02T05:49:35.073Z,14.50
2022-10-02T05:52:22.955Z,14.36
2022-10-02T05:54:58.754Z,14.33
2022-10-02T05:57:42.389Z,14.36
2022-10-02T06:00:26.578Z,14.35
2022-10-02T06:03:17.575Z,14.62
2022-10-02T06:05:56.656Z,14.38
2022-10-02T06:08:41.266Z,14.46
2022-10-02T06:11:20.404Z,14.40
2022-10-02T06:13:58.902Z,14.40
2022-10-02T06:16:43.005Z,14.26
2022-10-02T06:19:29.197Z,14.05
2022-10-02T06:22:21.495Z,14.04
2022-10-02T06:25:15.397Z,14.19
2022-10-02T06:28:07.589Z,14.35
2022-10-02T06:30:41.251Z,14.22
2022-10-02T06:33:25.288Z,14.42
2022-10-02T06:36:34.959Z,14.32
2022-10-02T06:39:17.950Z,14.22
2022-10-02T06:42:21.732Z,14.25
2022-10-02T06:45:24.730Z,14.45
2022-10-02T06:48:05.703Z,14.69
2022-10-02T06:50:42.597Z,14.67
2022-10-02T06:53:55.041Z,14.65
2022-10-02T06:56:37.450Z,14.62
2022-10-02T06:59:35.047Z,14.52
2022-10-02T07:02:23.716Z,14.30
2022-10-02T07:05:20.373Z,14.49
2022-10-02T07:08:12.380Z,14.65
2022-10-02T07:10:46.773Z,14.62
2022-10-02T07:13:22.918Z,14.80
2022-10-02T07:16:09.444Z,14.72
2022-10-02T07:18:55.524Z,14.91
2022-10-02T07:21:46.563Z,14.77
2022-10-02T07:24:44.049Z,14.98
2022-10-02T07:27:37.137Z,15.03
2022-10-02T07:30:14.039Z,14.96
2022-10-02T07:33:02.093Z,14.81
2022-10-02T07:35:44.568Z,14.83
2022-10-02T07:38:21.158Z,14.80
2022-10-02T07:41:01.976Z,14.70
2022-10-02T07:43:44.295Z,14.80
2022-10-02T07:46:23.752Z,14.94
2022-10-02T07:48:57.456Z,14.79
2022-10-02T07:51:47.704Z,14.77
2022-10-02T07:54:43.022Z,14.90
2022-10-02T07:57:36.492Z,14.98
2022-10-02T08:00:26.582Z,14.86
2022-10-02T08:03:01.051Z,14.90
2022-10-02T08:05:38.318Z,14.98
2022-10-02T08:08:26.257Z,15.00
2022-10-02T08:11:09.641Z,14.98
2022-10-02T08:13:45.955Z,15.10
2022-10-02T08:16:17.758Z,15.15
2022-10-02T08:19:01.763Z,15.10
2022-10-02T08:21:38.816Z,15.15
2022-10-02T08:24:28.316Z,15.11
2022-10-02T08:27:05.210Z,15.28
2022-10-02T08:30:02.402Z,15.31
2022-10-02T08:32:35.000Z,15.27
2022-10-02T08:35:12.176Z,15.30
2022-10-02T08:38:05.098Z,15.24
2022-10-02T08:41:17.115Z,15.39
2022-10-02T08:43:54.066Z,15.52
2022-10-02T08:47:00.008Z,15.38
2022-10-02T08:49:33.715Z,15.61
2022-10-02T08:52:45.298Z,15.67
2022-10-02T08:55:52.535Z,15.66
2022-10-02T08:58:58.442Z,15.65
2022-10-02T09:02:02.344Z,15.67
2022-10-02T09:05:00.894Z,15.93
2022-10-02T09:07:59.064Z,15.87
2022-10-02T09:10:45.908Z,15.73
2022-10-02T09:13:40.420Z,15.83
2022-10-02T09:16:41.854Z,15.82
2022-10-02T09:19:12.558Z,15.86
2022-10-02T09:21:59.147Z,15.56
2022-10-02T09:24:29.977Z,15.93
2022-10-02T09:27:13.644Z,16.41
2022-10-02T09:30:18.405Z,16.41
2022-10-02T09:33:21.243Z,16.03
2022-10-02T09:36:09.405Z,16.14
2022-10-02T09:38:55.702Z,15.79
2022-10-02T09:41:50.665Z,15.90
2022-10-02T09:45:07.578Z,16.10
2022-10-02T09:48:01.692Z,15.96
2022-10-02T09:51:04.890Z,15.85
2022-10-02T09:53:36.622Z,15.85
2022-10-02T09:56:35.308Z,16.11
2022-10-02T09:59:21.380Z,16.32
2022-10-02T10:02:30.531Z,16.28
2022-10-02T10:05:17.080Z,16.24
2022-10-02T10:08:10.857Z,16.24
2022-10-02T10:10:54.036Z,16.13
2022-10-02T10:14:03.304Z,16.30
2022-10-02T10:16:38.337Z,15.92
2022-10-02T10:19:24.767Z,15.82
2022-10-02T10:22:33.936Z,15.86
2022-10-02T10:25:28.377Z,15.93
2022-10-02T10:28:28.582Z,15.70
2022-10-02T10:31:13.014Z,15.83
2022-10-02T10:33:59.852Z,15.90
2022-10-02T10:36:55.327Z,15.78
2022-10-02T10:39:41.942Z,15.69
2022-10-02T10:42:49.987Z,15.89
2022-10-02T10:45:55.306Z,16.52
2022-10-02T10:48:49.180Z,16.21
2022-10-02T10:51:30.653Z,16.09
2022-10-02T10:54:31.340Z,16.40
2022-10-02T10:57:29.483Z,16.85
2022-10-02T10:59:59.931Z,16.86
2022-10-02T11:03:04.910Z,17.13
2022-10-02T11:05:54.150Z,16.95
2022-10-02T11:08:36.612Z,16.80
2022-10-02T11:11:23.297Z,16.99
2022-10-02T11:14:12.817Z,16.78
2022-10-02T11:17:07.972Z,16.67
2022-10-02T11:19:48.770Z,16.59
2022-10-02T11:22:40.677Z,16.76
2022-10-02T11:25:30.339Z,16.78
2022-10-02T11:27:57.968Z,16.58
2022-10-02T11:31:03.246Z,16.64
2022-10-02T11:33:45.142Z,17.00
2022-10-02T11:36:30.571Z,17.20
2022-10-02T11:39:33.764Z,16.88
2022-10-02T11:42:13.166Z,17.19
2022-10-02T11:45:04.881Z,17.36
2022-10-02T11:47:51.141Z,17.15
2022-10-02T11:50:29.243Z,16.72
2022-10-02T11:53:16.182Z,16.65
2022-10-02T11:56:15.150Z,17.02
2022-10-02T11:59:23.110Z,16.89
2022-10-02T12:02:01.893Z,17.02
2022-10-02T12:04:33.933Z,17.02
2022-10-02T12:07:40.482Z,17.50
2022-10-02T12:10:37.431Z,17.67
2022-10-02T12:13:24.795Z,17.65
2022-10-02T12:16:17.137Z,17.82
2022-10-02T12:18:56.267Z,17.82
2022-10-02T12:21:48.761Z,17.79
2022-10-02T12:25:00.337Z,17.50
2022-10-02T12:27:54.755Z,17.77
2022-10-02T12:30:40.766Z,17.94
2022-10-02T12:33:17.806Z,17.63
2022-10-02T12:35:58.355Z,17.71
2022-10-02T12:39:04.635Z,17.89
2022-10-02T12:41:52.278Z,17.91
2022-10-02T12:44:47.708Z,17.91
2022-10-02T12:47:33.482Z,17.41
2022-10-02T12:50:13.030Z,17.34
2022-10-02T12:53:16.008Z,17.51
2022-10-02T12:56:14.729Z,17.70
2022-10-02T12:59:19.561Z,17.77
2022-10-02T13:02:06.329Z,17.84
2022-10-02T13:04:52.873Z,17.54
2022-10-02T13:07:49.907Z,17.43
2022-10-02T13:10:23.619Z,17.68
2022-10-02T13:13:26.203Z,17.54
2022-10-02T13:16:22.956Z,17.48
2022-10-02T13:19:09.475Z,17.46
2022-10-02T13:21:43.038Z,17.46
2022-10-02T13:24:45.355Z,17.55
2022-10-02T13:27:37.854Z,17.73
2022-10-02T13:30:24.524Z,17.70
2022-10-02T13:33:25.602Z,17.92
2022-10-02T13:36:04.527Z,17.71
2022-10-02T13:38:48.117Z,17.51
2022-10-02T13:41:31.232Z,17.70
2022-10-02T13:44:05.028Z,17.53
2022-10-02T13:47:03.145Z,17.71
2022-10-02T13:49:48.004Z,17.54
2022-10-02T13:52:18.297Z,17.41
2022-10-02T13:55:12.049Z,17.31
2022-10-02T13:58:10.938Z,17.02
2022-10-02T14:00:38.554Z,16.98
2022-10-02T14:03:33.465Z,17.05
2022-10-02T14:06:20.734Z,17.30
2022-10-02T14:09:16.258Z,17.15
2022-10-02T14:12:06.146Z,16.95
2022-10-02T14:14:49.245Z,17.31
2022-10-02T14:17:46.502Z,17.02
2022-10-02T14:20:29.628Z,16.82
2022-10-02T14:23:19.117Z,16.83
2022-10-02T14:26:06.759Z,16.88
2022-10-02T14:28:53.028Z,16.95
2022-10-02T14:31:39.716Z,17.12
2022-10-02T14:34:32.027Z,17.13
2022-10-02T14:37:26.906Z,17.26
2022-10-02T14:39:59.866Z,17.37
2022-10-02T14:42:53.953Z,17.23
2022-10-02T14:46:10.052Z,17.02
2022-10-02T14:49:01.961Z,16.96
2022-10-02T14:52:07.310Z,16.89
2022-10-02T14:54:53.510Z,16.89
2022-10-02T14:57:39.891Z,16.78
2022-10-02T15:00:18.333Z,16.59
2022-10-02T15:02:57.367Z,16.44
2022-10-02T15:05:28.460Z,16.61
2022-10-02T15:07:57.847Z,16.79
2022-10-02T15:10:38.613Z,17.03
2022-10-02T15:13:37.662Z,17.00
2022-10-02T15:16:42.808Z,16.88
2022-10-02T15:19:33.295Z,17.19
2022-10-02T15:22:25.007Z,17.31
2022-10-02T15:24:59.415Z,17.40
2022-10-02T15:27:32.683Z,17.36
2022-10-02T15:30:23.204Z,17.03
2022-10-02T15:33:36.792Z,16.88
2022-10-02T15:36:49.287Z,16.99
2022-10-02T15:39:28.261Z,16.86
2022-10-02T15:42:08.837Z,16.50
2022-10-02T15:45:02.542Z,16.55
2022-10-02T15:47:52.444Z,16.41
2022-10-02T15:50:45.141Z,16.57
2022-10-02T15:53:27.940Z,16.55
2022-10-02T15:56:27.224Z,16.62
2022-10-02T15:59:21.730Z,16.59
2022-10-02T16:02:16.707Z,16.73
2022-10-02T16:05:25.615Z,16.69
2022-10-02T16:08:21.391Z,16.57
2022-10-02T16:10:57.904Z,16.54
2022-10-02T16:13:48.218Z,16.55
2022-10-02T16:16:32.219Z,16.83
2022-10-02T16:19:18.960Z,16.67
2022-10-02T16:22:29.184Z,16.54
2022-10-02T16:25:12.951Z,16.42
2022-10-02T16:28:09.222Z,16.45
2022-10-02T16:31:06.028Z,16.58
2022-10-02T16:33:51.866Z,16.57
2022-10-02T16:36:33.714Z,16.32
2022-10-02T16:39:20.882Z,16.31
2022-10-02T16:42:20.519Z,16.24
2022-10-02T16:44:57.036Z,16.27
2022-10-02T16:47:54.999Z,16.11
2022-10-02T16:50:44.473Z,16.16
2022-10-02T16:53:41.414Z,15.92
2022-10-02T16:56:23.550Z,15.79
2022-10-02T16:59:28.854Z,15.86
2022-10-02T17:02:17.735Z,15.67
2022-10-02T17:04:57.706Z,15.59
2022-10-02T17:08:06.045Z,15.49
2022-10-02T17:10:46.481Z,15.53
2022-10-02T17:13:44.777Z,15.55
2022-10-02T17:16:22.097Z,15.14
2022-10-02T17:18:57.238Z,15.03
2022-10-02T17:22:03.966Z,14.90
2022-10-02T17:25:02.300Z,14.87
2022-10-02T17:28:19.511Z,14.86
2022-10-02T17:31:08.203Z,14.70
2022-10-02T17:33:51.738Z,14.76
2022-10-02T17:37:02.588Z,14.73
2022-10-02T17:39:57.450Z,14.75
2022-10-02T17:42:47.173Z,14.77
2022-10-02T17:45:34.917Z,14.75
2022-10-02T17:48:17.851Z,14.76
2022-10-02T17:50:57.041Z,14.75
2022-10-02T17:54:14.321Z,14.79
2022-10-02T17:56:50.020Z,14.79
2022-10-02T17:59:55.102Z,14.75
2022-10-02T18:03:01.782Z,14.67
2022-10-02T18:05:57.538Z,14.80
2022-10-02T18:08:57.891Z,14.87
2022-10-02T18:12:06.067Z,14.80
2022-10-02T18:14:46.761Z,14.75
2022-10-02T18:17:26.871Z,14.60
2022-10-02T18:20:19.326Z,14.57
2022-10-02T18:23:15.432Z,14.40
2022-10-02T18:25:52.453Z,14.52
2022-10-02T18:28:59.405Z,14.67
2022-10-02T18:31:55.729Z,14.53
2022-10-02T18:34:54.141Z,14.39
2022-10-02T18:37:39.958Z,14.50
2022-10-02T18:40:25.929Z,14.47
2022-10-02T18:43:06.203Z,14.53
2022-10-02T18:45:46.063Z,14.72
2022-10-02T18:48:38.531Z,14.70
2022-10-02T18:51:14.943Z,14.80
2022-10-02T18:53:59.126Z,14.83
2022-10-02T18:56:57.159Z,14.93
2022-10-02T18:59:44.937Z,15.21
2022-10-02T19:02:34.026Z,15.20
2022-10-02T19:05:23.794Z,15.11
2022-10-02T19:08:03.546Z,14.96
2022-10-02T19:10:34.322Z,15.14
2022-10-02T19:13:21.614Z,15.39
2022-10-02T19:15:53.071Z,15.48
2022-10-02T19:18:27.084Z,15.51
2022-10-02T19:21:06.798Z,15.56
2022-10-02T19:23:38.296Z,15.61
2022-10-02T19:26:26.299Z,15.69
2022-10-02T19:29:06.147Z,15.62
2022-10-02T19:31:41.975Z,15.58
2022-10-02T19:34:20.708Z,15.49
2022-10-02T19:36:54.445Z,15.28
2022-10-02T19:39:30.662Z,15.17
2022-10-02T19:42:03.288Z,15.05
2022-10-02T19:44:40.308Z,15.01
2022-10-02T19:47:38.239Z,14.79
2022-10-02T19:50:17.389Z,14.65
2022-10-02T19:52:51.813Z,14.66
2022-10-02T19:55:32.841Z,14.60
2022-10-02T19:58:23.449Z,14.55
2022-10-02T20:00:53.886Z,14.52
2022-10-02T20:03:26.301Z,14.45
2022-10-02T20:06:00.442Z,14.36
2022-10-02T20:08:36.258Z,14.32
2022-10-02T20:11:20.089Z,14.25
2022-10-02T20:14:17.913Z,14.19
2022-10-02T20:17:04.198Z,14.18
2022-10-02T20:19:46.003Z,13.97
2022-10-02T20:22:34.761Z,13.90
2022-10-02T20:25:30.158Z,13.94
2022-10-02T20:28:17.360Z,13.91
2022-10-02T20:30:51.938Z,13.98
2022-10-02T20:33:26.340Z,14.01
2022-10-02T20:36:06.411Z,14.04
2022-10-02T20:38:49.981Z,14.11
2022-10-02T20:41:34.048Z,14.17
2022-10-02T20:44:06.431Z,14.12
2022-10-02T20:46:44.777Z,14.07
2022-10-02T20:49:27.696Z,14.02
2022-10-02T20:52:14.540Z,14.04
2022-10-02T20:55:01.944Z,13.94
2022-10-02T20:58:07.758Z,13.59
2022-10-02T21:01:03.305Z,13.63
2022-10-02T21:03:37.090Z,13.49
2022-10-02T21:06:23.095Z,13.47
2022-10-02T21:09:16.342Z,13.38
2022-10-02T21:12:22.339Z,13.39
2022-10-02T21:15:11.290Z,13.38
2022-10-02T21:17:53.902Z,13.43
2022-10-02T21:20:50.123Z,13.39
2022-10-02T21:23:50.141Z,13.36
2022-10-02T21:26:39.340Z,13.02
2022-10-02T21:29:55.157Z,13.02
2022-10-02T21:32:28.925Z,13.06
2022-10-02T21:35:26.508Z,13.15
2022-10-02T21:38:20.008Z,13.19
2022-10-02T21:41:14.910Z,13.13
2022-10-02T21:43:48.201Z,13.05
2022-10-02T21:46:53.423Z,12.96
2022-10-02T21:49:58.703Z,12.88
2022-10-02T21:53:04.234Z,12.74
2022-10-02T21:55:51.342Z,12.48
2022-10-02T21:59:01.783Z,12.38
2022-10-02T22:02:04.211Z,12.40
2022-10-02T22:04:52.723Z,12.41
2022-10-02T22:07:50.987Z,12.51
2022-10-02T22:10:57.826Z,12.54
2022-10-02T22:13:38.790Z,12.57
2022-10-02T22:16:41.535Z,12.60
2022-10-02T22:19:58.557Z,12.64
2022-10-02T22:22:51.117Z,12.58
2022-10-02T22:25:32.324Z,12.43
2022-10-02T22:28:42.254Z,12.43
2022-10-02T22:31:12.949Z,12.30
2022-10-02T22:34:08.822Z,12.34
2022-10-02T22:36:51.631Z,12.36
2022-10-02T22:39:52.480Z,12.34
2022-10-02T22:42:32.119Z,12.40
2022-10-02T22:45:17.090Z,12.45
2022-10-02T22:48:06.015Z,12.41
2022-10-02T22:50:48.158Z,12.37
2022-10-02T22:53:28.020Z,12.27
2022-10-02T22:55:57.420Z,12.32
2022-10-02T22:58:56.609Z,12.33
2022-10-02T23:01:46.448Z,12.33
2022-10-02T23:04:58.505Z,12.33
2022-10-02T23:08:26.158Z,12.34
2022-10-02T23:11:07.217Z,12.37
2022-10-02T23:13:50.978Z,12.29
2022-10-02T23:16:42.857Z,12.26
2022-10-02T23:19:29.134Z,12.24
2022-10-02T23:22:09.008Z,12.19
2022-10-02T23:24:52.066Z,12.13
2022-10-02T23:27:35.642Z,12.13
2022-10-02T23:30:17.619Z,12.12
2022-10-02T23:33:13.344Z,12.07
2022-10-02T23:36:06.899Z,12.02
2022-10-02T23:38:53.044Z,11.93
2022-10-02T23:41:37.526Z,11.99
2022-10-02T23:44:30.162Z,11.96
2022-10-02T23:47:26.445Z,11.96
2022-10-02T23:49:59.606Z,11.92
2022-10-02T23:52:39.015Z,11.90
2022-10-02T23:55:27.990Z,11.87
2022-10-02T23:58:14.289Z,11.81
